Time;durP1;ratioP1;P1;durP2;ratioP2;P2;SDS_P1;SDS_P2;PMS_P1;PMS_P2;Temp;Humidity;BMP_temperature;BMP_pressure;BME280_temperature;BME280_humidity;BME280_pressure;Samples;Min_cycle;Max_cycle;Signal;HPM_P1;HPM_P2
2023/08/17 00:02:14;;;;;;;11.45;10.07;;;24.40;67.70;;;;;;5116263;28;20036;-70
2023/08/17 00:04:40;;;;;;;10.85;9.20;;;24.40;67.80;;;;;;5116527;28;20092;-70
2023/08/17 00:07:09;;;;;;;13.40;10.18;;;24.40;67.80;;;;;;5115960;28;20024;-70
2023/08/17 00:09:37;;;;;;;11.85;10.45;;;24.30;67.90;;;;;;5116361;28;20036;-70
2023/08/17 00:12:06;;;;;;;12.85;9.45;;;24.30;68.00;;;;;;5116072;28;20380;-70
2023/08/17 00:14:34;;;;;;;11.77;9.60;;;24.30;68.00;;;;;;5115836;28;20065;-70
2023/08/17 00:17:02;;;;;;;10.80;9.70;;;24.30;68.10;;;;;;5114822;28;20345;-70
2023/08/17 00:19:31;;;;;;;11.25;9.45;;;24.30;68.10;;;;;;5115733;28;20031;-70
2023/08/17 00:21:57;;;;;;;11.00;9.80;;;24.30;68.20;;;;;;5115970;28;20024;-70
2023/08/17 00:24:25;;;;;;;11.88;10.60;;;24.30;68.30;;;;;;5116082;28;20072;-70
2023/08/17 00:26:52;;;;;;;16.95;13.05;;;24.30;68.50;;;;;;5116269;28;20104;-69
2023/08/17 00:29:18;;;;;;;13.98;11.45;;;24.20;68.40;;;;;;5115760;28;20037;-69
2023/08/17 00:31:44;;;;;;;13.45;10.20;;;24.20;68.60;;;;;;5115822;28;20158;-69
2023/08/17 00:34:10;;;;;;;12.35;10.82;;;24.10;68.70;;;;;;5116219;28;20472;-70
2023/08/17 00:36:36;;;;;;;14.40;10.95;;;24.00;68.70;;;;;;5116239;28;20030;-70
2023/08/17 00:39:02;;;;;;;13.77;11.05;;;24.00;68.70;;;;;;5115644;28;20028;-70
2023/08/17 00:41:31;;;;;;;14.70;11.43;;;23.90;69.00;;;;;;5115486;28;20110;-69
2023/08/17 00:44:00;;;;;;;13.48;10.60;;;23.90;69.10;;;;;;5116081;28;20024;-69
2023/08/17 00:46:29;;;;;;;14.68;12.10;;;23.90;69.20;;;;;;5115814;28;20047;-70
2023/08/17 00:48:58;;;;;;;13.65;11.25;;;23.90;69.20;;;;;;5119625;28;20110;-70
2023/08/17 00:51:26;;;;;;;15.43;10.75;;;23.80;69.10;;;;;;5119479;28;20076;-70
2023/08/17 00:53:57;;;;;;;13.95;10.80;;;23.80;69.20;;;;;;5119830;28;20436;-70
2023/08/17 00:56:27;;;;;;;15.05;11.80;;;23.70;69.30;;;;;;5119813;28;20039;-70
2023/08/17 00:58:54;;;;;;;16.48;12.25;;;23.80;69.50;;;;;;5119425;28;20019;-70
2023/08/17 01:01:21;;;;;;;15.70;11.70;;;23.70;69.60;;;;;;5119286;28;20019;-70
2023/08/17 01:03:47;;;;;;;16.83;12.75;;;23.70;69.70;;;;;;5119513;28;20051;-69
2023/08/17 01:06:13;;;;;;;16.25;13.10;;;23.60;69.80;;;;;;5119808;28;20068;-70
2023/08/17 01:08:42;;;;;;;15.88;12.98;;;23.50;70.10;;;;;;5119735;28;20032;-70
2023/08/17 01:11:32;;;;;;;14.07;11.55;;;23.50;70.30;;;;;;5119579;28;20030;-70
2023/08/17 01:14:23;;;;;;;14.57;11.27;;;23.50;70.60;;;;;;5119390;28;20023;-70
2023/08/17 01:17:19;;;;;;;13.35;10.93;;;23.40;70.60;;;;;;5119659;28;20076;-69
2023/08/17 01:19:45;;;;;;;16.83;12.30;;;23.40;70.60;;;;;;5119281;28;20028;-69
2023/08/17 01:22:14;;;;;;;13.02;11.07;;;23.40;70.20;;;;;;5119185;27;20390;-69
2023/08/17 01:24:44;;;;;;;15.05;11.40;;;23.40;70.30;;;;;;5119209;28;20020;-69
2023/08/17 01:27:10;;;;;;;16.20;12.45;;;23.30;70.40;;;;;;5118912;28;20020;-69
2023/08/17 01:29:41;;;;;;;12.95;10.43;;;23.40;70.60;;;;;;5119103;28;20341;-69
2023/08/17 01:32:12;;;;;;;13.20;11.15;;;23.30;70.70;;;;;;5118809;28;20016;-69
2023/08/17 01:35:09;;;;;;;17.80;13.38;;;23.30;70.70;;;;;;5119086;28;20023;-69
2023/08/17 01:37:38;;;;;;;19.23;14.25;;;23.30;70.80;;;;;;5119405;27;20027;-69
2023/08/17 01:40:07;;;;;;;15.88;12.70;;;23.30;71.60;;;;;;5118975;28;20436;-70
2023/08/17 01:42:33;;;;;;;14.43;11.88;;;23.20;71.70;;;;;;5118493;28;20058;-70
2023/08/17 01:45:07;;;;;;;14.85;11.50;;;23.10;71.70;;;;;;5118523;27;20031;-70
2023/08/17 01:47:33;;;;;;;13.65;11.70;;;23.10;71.60;;;;;;5119089;28;20106;-69
2023/08/17 01:50:03;;;;;;;14.80;13.20;;;23.10;71.50;;;;;;5118948;28;20107;-70
2023/08/17 01:52:31;;;;;;;14.48;11.45;;;23.10;71.40;;;;;;5118475;28;20118;-70
2023/08/17 01:55:00;;;;;;;14.25;12.38;;;23.10;71.50;;;;;;5118287;28;20031;-70
2023/08/17 01:57:28;;;;;;;15.10;11.90;;;23.20;71.50;;;;;;5118787;28;20031;-70
2023/08/17 01:59:54;;;;;;;14.20;11.75;;;23.20;71.40;;;;;;5118234;28;20030;-70
2023/08/17 02:02:21;;;;;;;13.32;11.27;;;23.20;71.30;;;;;;5118195;27;20031;-70
2023/08/17 02:04:47;;;;;;;13.02;11.52;;;23.20;71.20;;;;;;5118441;28;20032;-70
2023/08/17 02:07:14;;;;;;;13.13;10.60;;;23.20;71.20;;;;;;5118139;28;20027;-70
2023/08/17 02:09:40;;;;;;;12.73;10.77;;;23.10;71.30;;;;;;5118551;28;20027;-70
2023/08/17 02:12:08;;;;;;;14.45;11.80;;;23.10;71.40;;;;;;5118246;28;20477;-70
2023/08/17 02:14:36;;;;;;;15.63;12.52;;;23.10;71.50;;;;;;5118265;28;20019;-69
2023/08/17 02:17:05;;;;;;;19.38;14.75;;;23.10;71.50;;;;;;5118113;28;20437;-69
2023/08/17 02:19:32;;;;;;;14.40;11.30;;;23.10;72.10;;;;;;5117794;28;20027;-69
2023/08/17 02:21:58;;;;;;;16.63;12.48;;;23.00;71.80;;;;;;5118080;28;20023;-70
2023/08/17 02:24:26;;;;;;;17.55;12.95;;;23.00;71.90;;;;;;5118402;28;20113;-70
2023/08/17 02:26:52;;;;;;;14.25;11.68;;;22.90;71.70;;;;;;5118118;28;20027;-70
2023/08/17 02:29:18;;;;;;;14.30;11.88;;;22.90;71.80;;;;;;5117761;28;20027;-70
2023/08/17 02:31:44;;;;;;;13.20;11.25;;;22.90;71.80;;;;;;5117566;28;20352;-69
2023/08/17 02:34:10;;;;;;;13.18;11.38;;;22.90;72.10;;;;;;5117663;28;20027;-69
2023/08/17 02:36:39;;;;;;;14.68;10.82;;;22.90;72.00;;;;;;5117849;28;20019;-70
2023/08/17 02:39:07;;;;;;;13.43;10.38;;;22.90;72.00;;;;;;5117512;28;20403;-69
2023/08/17 02:41:35;;;;;;;13.77;11.25;;;22.90;72.00;;;;;;5117788;28;20076;-69
2023/08/17 02:44:09;;;;;;;14.02;11.48;;;22.90;72.20;;;;;;5117365;28;20027;-69
2023/08/17 02:46:35;;;;;;;13.18;10.52;;;22.80;72.30;;;;;;5117115;28;20060;-69
2023/08/17 02:49:01;;;;;;;13.68;11.32;;;22.90;72.20;;;;;;5117886;28;20024;-69
2023/08/17 02:51:33;;;;;;;12.90;10.75;;;22.80;72.10;;;;;;5117147;28;20102;-69
2023/08/17 02:54:01;;;;;;;14.20;10.88;;;22.80;72.10;;;;;;5117183;28;20024;-69
2023/08/17 02:56:27;;;;;;;13.65;11.48;;;22.80;72.30;;;;;;5117208;28;20481;-69
2023/08/17 02:58:53;;;;;;;13.82;11.10;;;22.80;72.40;;;;;;5117151;28;20098;-69
2023/08/17 03:01:21;;;;;;;13.70;10.95;;;22.80;72.30;;;;;;5117044;28;20024;-69
2023/08/17 03:03:48;;;;;;;13.02;11.02;;;22.90;72.20;;;;;;5116964;28;20106;-69
2023/08/17 03:06:14;;;;;;;13.30;11.15;;;22.80;72.10;;;;;;5116988;28;20063;-69
2023/08/17 03:08:40;;;;;;;16.25;11.70;;;22.80;72.00;;;;;;5116957;28;20073;-69
2023/08/17 03:11:09;;;;;;;14.25;12.25;;;22.70;72.00;;;;;;5115860;28;20085;-69
2023/08/17 03:13:35;;;;;;;16.05;13.45;;;22.70;72.30;;;;;;5117005;28;20070;-69
2023/08/17 03:16:01;;;;;;;15.25;13.35;;;22.70;72.40;;;;;;5117346;28;20031;-69
2023/08/17 03:18:29;;;;;;;16.45;13.00;;;22.60;72.20;;;;;;5117331;28;20024;-69
2023/08/17 03:20:55;;;;;;;15.88;13.20;;;22.60;72.40;;;;;;5116646;28;20031;-70
2023/08/17 03:23:21;;;;;;;17.88;12.30;;;22.50;72.50;;;;;;5116936;28;20088;-69
2023/08/17 03:25:52;;;;;;;15.38;12.07;;;22.50;72.80;;;;;;5117147;28;20354;-69
2023/08/17 03:28:18;;;;;;;14.93;11.73;;;22.50;72.70;;;;;;5117165;28;20068;-69
2023/08/17 03:30:45;;;;;;;13.85;11.63;;;22.40;73.10;;;;;;5116482;28;20034;-69
2023/08/17 03:33:13;;;;;;;13.07;11.20;;;22.40;73.20;;;;;;5116408;28;20081;-69
2023/08/17 03:35:39;;;;;;;12.75;11.10;;;22.40;73.20;;;;;;5116313;28;20031;-69
2023/08/17 03:38:06;;;;;;;14.32;11.43;;;22.40;73.40;;;;;;5116683;28;20095;-69
2023/08/17 03:40:32;;;;;;;13.70;10.75;;;22.40;73.30;;;;;;5116813;28;20024;-69
2023/08/17 03:42:58;;;;;;;15.30;11.18;;;22.40;73.20;;;;;;5116828;28;20024;-69
2023/08/17 03:45:24;;;;;;;12.80;10.00;;;22.50;73.10;;;;;;5116297;28;20464;-69
2023/08/17 03:47:52;;;;;;;13.93;10.80;;;22.40;73.10;;;;;;5116601;28;20024;-69
2023/08/17 03:50:18;;;;;;;12.23;9.98;;;22.40;73.10;;;;;;5116111;28;20069;-69
2023/08/17 03:52:46;;;;;;;17.50;13.43;;;22.40;73.20;;;;;;5115247;28;20089;-69
2023/08/17 03:55:13;;;;;;;14.40;11.50;;;22.40;73.20;;;;;;5116103;28;20027;-69
2023/08/17 03:57:39;;;;;;;13.23;10.60;;;22.40;73.40;;;;;;5116648;28;20051;-69
2023/08/17 04:00:10;;;;;;;13.73;10.68;;;22.40;73.20;;;;;;5116054;28;20101;-69
2023/08/17 04:02:36;;;;;;;16.33;11.98;;;22.40;73.00;;;;;;5115356;28;20043;-69
2023/08/17 04:05:03;;;;;;;14.00;10.68;;;22.40;73.10;;;;;;5115977;28;20027;-69
2023/08/17 04:07:29;;;;;;;11.68;10.00;;;22.40;73.00;;;;;;5115931;28;20020;-69
2023/08/17 04:09:55;;;;;;;12.98;11.20;;;22.40;72.90;;;;;;5115876;28;20023;-69
2023/08/17 04:12:31;;;;;;;18.48;11.02;;;22.40;72.90;;;;;;5116373;28;20019;-69
2023/08/17 04:15:00;;;;;;;13.63;11.00;;;22.50;72.90;;;;;;5116468;28;20081;-69
2023/08/17 04:17:28;;;;;;;15.30;10.65;;;22.40;72.80;;;;;;5115792;28;20024;-69
2023/08/17 04:20:01;;;;;;;13.70;10.88;;;22.40;72.80;;;;;;5115763;28;20046;-69
2023/08/17 04:22:27;;;;;;;12.50;10.82;;;22.40;72.90;;;;;;5115984;28;20035;-69
2023/08/17 04:24:56;;;;;;;11.95;10.57;;;22.40;72.90;;;;;;5115742;28;20028;-69
2023/08/17 04:27:23;;;;;;;12.88;10.85;;;22.40;73.00;;;;;;5116283;28;20310;-69
2023/08/17 04:29:52;;;;;;;13.13;10.70;;;22.50;72.90;;;;;;5116134;28;20020;-69
2023/08/17 04:32:23;;;;;;;13.30;10.60;;;22.40;72.80;;;;;;5115561;28;20444;-69
2023/08/17 04:34:49;;;;;;;14.32;12.38;;;22.40;72.90;;;;;;5115690;28;20020;-70
2023/08/17 04:37:15;;;;;;;13.55;10.93;;;22.40;72.70;;;;;;5115911;28;20020;-70
2023/08/17 04:39:43;;;;;;;14.07;10.88;;;22.50;72.90;;;;;;5115649;28;20020;-70
2023/08/17 04:42:11;;;;;;;12.68;10.68;;;22.50;72.80;;;;;;5115800;28;20028;-70
2023/08/17 04:44:37;;;;;;;12.30;9.80;;;22.60;72.80;;;;;;5116087;28;20070;-70
2023/08/17 04:47:06;;;;;;;11.77;9.88;;;22.70;72.70;;;;;;5114210;28;20035;-70
2023/08/17 04:49:34;;;;;;;12.18;10.38;;;22.70;72.60;;;;;;5115471;28;20023;-70
2023/08/17 04:52:04;;;;;;;12.00;10.13;;;22.80;72.40;;;;;;5115457;28;20016;-70
2023/08/17 04:54:36;;;;;;;12.73;10.00;;;22.90;72.20;;;;;;5115483;28;20038;-70
2023/08/17 04:57:05;;;;;;;14.55;10.63;;;23.00;72.00;;;;;;5115731;28;20023;-70
2023/08/17 04:59:33;;;;;;;14.30;12.35;;;23.10;71.80;;;;;;5115689;28;20117;-70
2023/08/17 05:02:01;;;;;;;13.98;11.63;;;23.20;71.60;;;;;;5115684;28;20016;-69
2023/08/17 05:04:31;;;;;;;13.98;11.05;;;23.20;71.40;;;;;;5115414;28;20031;-69
2023/08/17 05:07:01;;;;;;;14.20;12.30;;;23.40;71.40;;;;;;5115317;28;20019;-69
2023/08/17 05:09:27;;;;;;;13.60;11.82;;;24.00;71.00;;;;;;5115926;28;20027;-69
2023/08/17 05:11:57;;;;;;;12.27;10.15;;;24.90;69.50;;;;;;5114235;28;20471;-70
2023/08/17 05:14:23;;;;;;;14.85;12.30;;;26.00;67.30;;;;;;5115274;28;20024;-69
2023/08/17 05:16:49;;;;;;;12.48;10.38;;;27.00;64.90;;;;;;5115289;28;20340;-69
2023/08/17 05:19:15;;;;;;;12.05;9.77;;;28.00;62.50;;;;;;5115321;28;20034;-70
2023/08/17 05:21:40;;;;;;;13.13;9.63;;;29.00;60.50;;;;;;5115438;28;20088;-70
2023/08/17 05:24:07;;;;;;;13.15;10.30;;;29.90;58.60;;;;;;5115797;28;20034;-70
2023/08/17 05:26:33;;;;;;;11.05;9.13;;;30.70;56.60;;;;;;5115477;28;20019;-70
2023/08/17 05:28:58;;;;;;;11.52;8.65;;;31.50;54.90;;;;;;5115774;28;20487;-70
2023/08/17 05:31:25;;;;;;;10.05;8.73;;;32.40;53.00;;;;;;5115086;28;20039;-70
2023/08/17 05:33:51;;;;;;;9.75;8.70;;;33.20;51.20;;;;;;5116729;28;20452;-70
2023/08/17 05:36:17;;;;;;;10.43;8.50;;;34.00;49.90;;;;;;5118688;28;20069;-70
2023/08/17 05:38:43;;;;;;;10.45;8.32;;;34.90;48.50;;;;;;5118967;28;20104;-70
2023/08/17 05:41:09;;;;;;;10.93;8.35;;;35.60;47.20;;;;;;5118608;28;20023;-69
2023/08/17 05:43:35;;;;;;;10.80;8.23;;;36.20;46.00;;;;;;5118664;28;20073;-70
2023/08/17 05:46:06;;;;;;;11.50;8.15;;;36.90;45.10;;;;;;5118569;28;20051;-70
2023/08/17 05:48:32;;;;;;;9.05;7.95;;;37.50;43.60;;;;;;5119095;28;20028;-70
2023/08/17 05:51:01;;;;;;;9.10;7.68;;;38.10;43.00;;;;;;5118631;28;20112;-70
2023/08/17 05:53:28;;;;;;;9.27;8.25;;;38.70;42.10;;;;;;5118350;28;20443;-70
2023/08/17 05:55:54;;;;;;;9.77;8.73;;;39.20;41.20;;;;;;5118616;28;20019;-70
2023/08/17 05:58:20;;;;;;;10.50;6.97;;;39.70;40.40;;;;;;5118377;28;20027;-70
2023/08/17 06:00:46;;;;;;;7.78;6.97;;;40.00;39.50;;;;;;5118625;28;20037;-70
2023/08/17 06:03:12;;;;;;;9.20;7.68;;;40.20;38.80;;;;;;5118117;28;20103;-70
2023/08/17 06:05:40;;;;;;;10.05;7.72;;;40.60;38.10;;;;;;5118204;27;20055;-70
2023/08/17 06:08:05;;;;;;;9.63;7.32;;;41.00;37.50;;;;;;5118713;28;20027;-70
2023/08/17 06:10:31;;;;;;;9.38;8.38;;;41.50;37.00;;;;;;5118519;28;20050;-70
2023/08/17 06:12:57;;;;;;;9.18;7.93;;;41.90;36.40;;;;;;5117996;28;20432;-70
2023/08/17 06:15:24;;;;;;;10.75;8.18;;;42.40;35.90;;;;;;5118277;28;20019;-70
2023/08/17 06:17:50;;;;;;;8.35;7.40;;;42.90;35.40;;;;;;5117979;28;20081;-70
2023/08/17 06:20:16;;;;;;;7.93;7.13;;;43.50;34.70;;;;;;5117941;28;20023;-70
2023/08/17 06:22:42;;;;;;;10.07;7.63;;;44.00;34.00;;;;;;5117844;28;20027;-70
2023/08/17 06:25:08;;;;;;;8.00;7.18;;;44.50;33.60;;;;;;5118333;28;20084;-70
2023/08/17 06:27:35;;;;;;;8.20;6.93;;;45.00;33.10;;;;;;5118020;28;20031;-70
2023/08/17 06:30:03;;;;;;;8.60;7.10;;;45.40;32.40;;;;;;5117903;28;20114;-70
2023/08/17 06:32:32;;;;;;;10.32;7.43;;;45.90;31.90;;;;;;5117682;28;20024;-70
2023/08/17 06:34:58;;;;;;;8.73;7.82;;;46.20;31.50;;;;;;5117629;28;20020;-70
2023/08/17 06:37:24;;;;;;;9.07;7.75;;;46.60;30.80;;;;;;5118143;28;20055;-70
2023/08/17 06:39:50;;;;;;;10.75;8.10;;;46.90;30.70;;;;;;5118071;28;20072;-70
2023/08/17 06:42:16;;;;;;;9.10;7.45;;;46.60;30.60;;;;;;5117654;28;20065;-70
2023/08/17 06:44:42;;;;;;;9.05;7.18;;;45.40;31.30;;;;;;5117370;28;20056;-70
2023/08/17 06:47:08;;;;;;;10.18;7.65;;;43.60;32.60;;;;;;5117193;28;20031;-70
2023/08/17 06:49:35;;;;;;;11.05;7.45;;;42.10;34.00;;;;;;5117613;28;20093;-70
2023/08/17 06:52:00;;;;;;;11.77;7.60;;;41.70;35.20;;;;;;5117377;28;20038;-70
2023/08/17 06:54:26;;;;;;;8.95;7.78;;;42.40;34.90;;;;;;5117273;28;20019;-70
2023/08/17 06:56:52;;;;;;;8.25;7.38;;;43.40;34.00;;;;;;5117761;28;20028;-70
2023/08/17 06:59:18;;;;;;;9.45;7.05;;;44.30;33.10;;;;;;5117140;28;20047;-70
2023/08/17 07:01:44;;;;;;;10.35;7.65;;;45.00;32.40;;;;;;5117613;28;20069;-70
2023/08/17 07:04:10;;;;;;;9.23;7.88;;;45.70;31.70;;;;;;5117348;27;20016;-70
2023/08/17 07:06:36;;;;;;;9.95;7.78;;;46.20;31.00;;;;;;5117002;28;20027;-70
2023/08/17 07:09:04;;;;;;;10.95;7.93;;;46.50;30.60;;;;;;5117526;28;20027;-70
2023/08/17 07:11:31;;;;;;;10.00;7.88;;;46.80;30.10;;;;;;5116455;28;20043;-70
2023/08/17 07:13:57;;;;;;;11.10;7.70;;;46.90;29.70;;;;;;5117144;28;20427;-70
2023/08/17 07:16:23;;;;;;;9.20;7.90;;;47.10;29.20;;;;;;5116495;28;20485;-70
2023/08/17 07:18:49;;;;;;;9.50;7.70;;;46.90;29.10;;;;;;5117283;28;20030;-70
2023/08/17 07:21:15;;;;;;;8.82;7.93;;;45.90;29.70;;;;;;5116934;28;20020;-70
2023/08/17 07:23:45;;;;;;;10.27;7.95;;;44.50;30.70;;;;;;5117238;28;20095;-70
2023/08/17 07:26:11;;;;;;;8.80;7.45;;;43.00;32.00;;;;;;5116562;28;20043;-70
2023/08/17 07:28:37;;;;;;;9.68;7.88;;;41.70;33.20;;;;;;5116846;27;20066;-70
2023/08/17 07:31:02;;;;;;;9.77;7.10;;;40.70;34.40;;;;;;5116419;28;20429;-70
2023/08/17 07:33:28;;;;;;;8.68;7.53;;;39.70;35.40;;;;;;5116559;28;20072;-70
2023/08/17 07:35:55;;;;;;;10.75;8.80;;;38.90;36.50;;;;;;5117013;28;20038;-70
2023/08/17 07:38:22;;;;;;;8.35;7.53;;;38.40;37.40;;;;;;5116341;28;20066;-70
2023/08/17 07:40:48;;;;;;;8.57;7.20;;;37.70;38.10;;;;;;5116364;28;20113;-70
2023/08/17 07:43:14;;;;;;;8.02;7.07;;;37.30;38.80;;;;;;5116251;28;20148;-70
2023/08/17 07:45:39;;;;;;;10.80;7.68;;;37.00;39.20;;;;;;5115899;28;20052;-70
2023/08/17 07:48:06;;;;;;;9.88;7.13;;;36.80;39.40;;;;;;5116559;28;20463;-70
2023/08/17 07:50:34;;;;;;;8.68;7.78;;;36.70;39.60;;;;;;5116144;28;20031;-70
2023/08/17 07:53:00;;;;;;;10.75;6.90;;;36.60;39.60;;;;;;5116067;28;20027;-70
2023/08/17 07:55:26;;;;;;;8.52;7.10;;;36.40;39.70;;;;;;5116220;28;20027;-70
2023/08/17 07:57:54;;;;;;;8.35;7.10;;;36.40;39.80;;;;;;5115594;27;20016;-70
2023/08/17 08:00:20;;;;;;;9.40;7.30;;;36.30;39.80;;;;;;5116586;28;20111;-70
2023/08/17 08:02:46;;;;;;;9.00;7.00;;;36.10;39.70;;;;;;5116071;28;20055;-70
2023/08/17 08:05:14;;;;;;;9.10;6.82;;;35.90;39.90;;;;;;5116474;28;20027;-70
2023/08/17 08:07:39;;;;;;;8.82;7.07;;;35.90;40.10;;;;;;5115890;28;20028;-69
2023/08/17 08:10:06;;;;;;;8.25;7.00;;;35.90;40.00;;;;;;5116425;28;20390;-70
2023/08/17 08:12:32;;;;;;;9.65;7.82;;;35.70;39.60;;;;;;5115856;28;20023;-70
2023/08/17 08:14:58;;;;;;;7.55;6.85;;;35.60;39.60;;;;;;5115921;28;20360;-70
2023/08/17 08:17:24;;;;;;;9.07;7.95;;;35.60;39.70;;;;;;5115891;28;20025;-70
2023/08/17 08:19:50;;;;;;;9.75;7.38;;;35.50;39.70;;;;;;5116379;28;20250;-70
2023/08/17 08:22:16;;;;;;;7.38;6.57;;;35.20;39.90;;;;;;5115944;28;20039;-70
2023/08/17 08:24:45;;;;;;;10.90;7.70;;;34.90;40.40;;;;;;5116035;28;20352;-70
2023/08/17 08:27:11;;;;;;;10.00;7.82;;;34.70;40.80;;;;;;5115644;28;20015;-70
2023/08/17 08:29:37;;;;;;;8.52;7.10;;;34.70;41.10;;;;;;5115963;28;20015;-70
2023/08/17 08:32:03;;;;;;;8.77;7.35;;;34.60;41.30;;;;;;5115870;28;20024;-70
2023/08/17 08:34:29;;;;;;;9.00;8.02;;;34.80;41.30;;;;;;5115635;28;20035;-70
2023/08/17 08:36:55;;;;;;;8.93;7.38;;;34.90;41.30;;;;;;5115646;28;20011;-70
2023/08/17 08:39:28;;;;;;;9.60;7.53;;;35.00;41.00;;;;;;5116158;28;20020;-70
2023/08/17 08:41:55;;;;;;;9.52;7.65;;;35.00;40.90;;;;;;5116082;28;20020;-70
2023/08/17 08:44:22;;;;;;;8.43;7.28;;;35.10;41.00;;;;;;5115408;28;20149;-71
2023/08/17 08:46:48;;;;;;;8.93;7.95;;;35.10;40.80;;;;;;5115329;28;20059;-70
2023/08/17 08:49:22;;;;;;;9.55;8.55;;;35.20;40.60;;;;;;5114614;28;20070;-70
2023/08/17 08:51:52;;;;;;;9.23;8.05;;;35.20;40.50;;;;;;5115382;28;20526;-71
2023/08/17 08:54:23;;;;;;;10.88;8.40;;;35.10;40.50;;;;;;5116070;28;20019;-72
2023/08/17 08:56:58;;;;;;;9.65;8.25;;;34.90;40.50;;;;;;5115434;28;20465;-70
2023/08/17 08:59:26;;;;;;;8.63;7.72;;;34.80;41.10;;;;;;5116048;28;20028;-71
2023/08/17 09:01:53;;;;;;;9.75;7.50;;;34.80;41.50;;;;;;5115335;28;20447;-71
2023/08/17 09:04:20;;;;;;;9.57;8.18;;;34.90;41.70;;;;;;5115406;28;20397;-71
2023/08/17 09:06:50;;;;;;;8.18;7.35;;;34.90;41.60;;;;;;5115933;28;20028;-71
2023/08/17 09:09:17;;;;;;;9.45;7.70;;;34.90;41.50;;;;;;5117675;28;20031;-71
2023/08/17 09:11:48;;;;;;;9.05;7.68;;;34.90;41.50;;;;;;5119135;28;20049;-71
2023/08/17 09:14:16;;;;;;;9.10;7.95;;;35.00;41.50;;;;;;5119491;28;20024;-71
2023/08/17 09:16:44;;;;;;;9.70;8.05;;;35.10;41.60;;;;;;5118159;28;20049;-71
2023/08/17 09:19:13;;;;;;;9.48;8.48;;;35.10;41.50;;;;;;5119162;28;20015;-71
2023/08/17 09:21:39;;;;;;;8.77;7.88;;;35.10;41.60;;;;;;5119055;28;20444;-71
2023/08/17 09:24:08;;;;;;;10.90;8.85;;;35.00;41.80;;;;;;5119300;28;20032;-71
2023/08/17 09:26:34;;;;;;;9.43;7.88;;;34.80;42.00;;;;;;5118815;28;20330;-71
2023/08/17 09:29:17;;;;;;;9.10;8.20;;;34.50;42.30;;;;;;5118935;28;20030;-70
2023/08/17 09:31:46;;;;;;;9.00;7.72;;;34.40;42.40;;;;;;5119007;28;20034;-71
2023/08/17 09:34:15;;;;;;;11.40;8.38;;;34.40;42.50;;;;;;5119405;28;20031;-71
2023/08/17 09:36:49;;;;;;;11.35;8.60;;;34.30;42.60;;;;;;5118741;28;20340;-71
2023/08/17 09:39:34;;;;;;;9.50;7.82;;;34.30;42.70;;;;;;5117369;28;20062;-71
2023/08/17 09:42:03;;;;;;;11.30;8.05;;;34.20;42.80;;;;;;5118573;28;20023;-71
2023/08/17 09:44:35;;;;;;;9.88;8.23;;;34.30;43.00;;;;;;5118682;28;20064;-71
2023/08/17 09:49:29;;;;;;;10.00;8.88;;;34.20;43.00;;;;;;5119353;28;20042;-71
2023/08/17 09:52:00;;;;;;;10.50;8.77;;;34.20;43.40;;;;;;5118882;28;20064;-71
2023/08/17 09:56:54;;;;;;;9.50;7.60;;;34.00;43.80;;;;;;5118684;28;20402;-71
2023/08/17 09:59:23;;;;;;;10.90;8.40;;;34.00;44.00;;;;;;5118324;28;20016;-71
2023/08/17 10:01:52;;;;;;;10.52;8.27;;;34.00;44.00;;;;;;5118113;28;20027;-70
2023/08/17 10:04:25;;;;;;;9.77;8.02;;;34.00;43.90;;;;;;5118293;28;20058;-71
2023/08/17 10:06:57;;;;;;;11.43;8.15;;;34.00;43.90;;;;;;5118536;28;20054;-71
2023/08/17 10:09:29;;;;;;;;;;;33.90;44.00;;;;;;5119160;28;20429;-70
2023/08/17 10:11:57;;;;;;;13.00;8.07;;;33.90;44.10;;;;;;5118105;28;19949;-70
2023/08/17 10:14:33;;;;;;;10.07;8.25;;;33.90;43.90;;;;;;5118059;28;20019;-70
2023/08/17 10:17:10;;;;;;;12.40;9.13;;;33.90;43.40;;;;;;5117437;28;20073;-70
2023/08/17 10:19:51;;;;;;;10.80;9.10;;;33.90;43.20;;;;;;5117762;28;20050;-70
2023/08/17 10:22:33;;;;;;;11.77;8.35;;;33.50;43.90;;;;;;5118162;28;20043;-70
2023/08/17 10:25:01;;;;;;;9.57;7.57;;;33.40;44.20;;;;;;5118103;28;20027;-70
2023/08/17 10:27:28;;;;;;;9.15;7.85;;;33.40;44.30;;;;;;5117199;28;20491;-70
2023/08/17 10:29:56;;;;;;;9.60;8.52;;;33.50;44.10;;;;;;5117967;28;20051;-71
2023/08/17 10:32:25;;;;;;;11.25;9.07;;;33.50;44.10;;;;;;5117887;28;20023;-71
2023/08/17 10:34:52;;;;;;;10.68;7.90;;;33.50;44.20;;;;;;5118158;28;20016;-71
2023/08/17 10:37:20;;;;;;;11.27;8.75;;;33.50;44.20;;;;;;5117614;28;20031;-70
2023/08/17 10:39:49;;;;;;;9.82;7.90;;;33.50;44.20;;;;;;5116595;28;20340;-70
2023/08/17 10:44:45;;;;;;;10.43;8.77;;;33.50;43.90;;;;;;5118395;28;20110;-70
2023/08/17 10:47:35;;;;;;;11.25;8.07;;;33.50;43.60;;;;;;5115132;28;20078;-70
2023/08/17 10:50:23;;;;;;;10.25;7.88;;;33.40;43.90;;;;;;5100317;28;20020;-61
2023/08/17 10:52:50;;;;;;;10.13;8.18;;;33.40;43.90;;;;;;5099047;28;20103;-61
2023/08/17 10:55:18;;;;;;;9.85;8.45;;;33.50;43.80;;;;;;5115893;28;20098;-61
2023/08/17 10:57:46;;;;;;;11.15;8.75;;;33.50;43.70;;;;;;5117141;28;20444;-61
2023/08/17 11:00:16;;;;;;;10.00;8.07;;;33.40;43.60;;;;;;5117168;28;20106;-61
2023/08/17 11:02:55;;;;;;;11.50;8.23;;;33.50;43.70;;;;;;5117221;28;20027;-61
2023/08/17 11:05:40;;;;;;;9.35;7.50;;;33.50;43.60;;;;;;5117615;28;20318;-62
2023/08/17 11:08:09;;;;;;;8.57;7.28;;;33.50;44.20;;;;;;5116018;28;20028;-61
2023/08/17 11:10:38;;;;;;;10.07;8.25;;;33.60;43.90;;;;;;5116806;28;20115;-61
2023/08/17 11:13:07;;;;;;;9.40;8.20;;;33.80;43.80;;;;;;5117378;28;20333;-61
2023/08/17 11:18:12;;;;;;;11.38;9.55;;;33.70;44.00;;;;;;5117326;28;20115;-60
2023/08/17 11:20:42;;;;;;;11.30;8.63;;;33.60;44.30;;;;;;5116779;28;20023;-60
2023/08/17 11:23:11;;;;;;;10.98;7.70;;;33.50;44.40;;;;;;5116653;28;20058;-61
2023/08/17 11:25:39;;;;;;;10.25;8.55;;;33.60;44.60;;;;;;5117219;28;20425;-61
2023/08/17 11:28:11;;;;;;;10.10;8.60;;;33.70;44.30;;;;;;5117108;28;20019;-61
2023/08/17 11:33:05;;;;;;;9.65;8.68;;;33.70;44.40;;;;;;5116151;28;20390;-61
2023/08/17 11:35:34;;;;;;;9.50;8.50;;;33.60;44.40;;;;;;5116470;28;20098;-61
2023/08/17 11:38:03;;;;;;;9.63;8.63;;;33.60;44.20;;;;;;5116991;28;20020;-61
2023/08/17 11:40:33;;;;;;;10.77;9.18;;;33.60;44.20;;;;;;5116301;28;20027;-61
2023/08/17 11:43:09;;;;;;;9.98;8.30;;;33.50;44.20;;;;;;5116598;28;20038;-62
2023/08/17 11:45:37;;;;;;;9.25;8.10;;;33.50;44.40;;;;;;5115818;28;20039;-62
2023/08/17 11:48:03;;;;;;;11.23;8.43;;;33.50;44.30;;;;;;5116906;28;20028;-62
2023/08/17 11:50:32;;;;;;;11.95;8.32;;;33.60;44.20;;;;;;5116149;28;20111;-62
2023/08/17 11:53:00;;;;;;;10.52;9.32;;;33.70;44.00;;;;;;5116147;28;20015;-62
2023/08/17 11:55:27;;;;;;;9.65;8.38;;;33.70;43.80;;;;;;5116104;28;20495;-62
2023/08/17 11:57:53;;;;;;;11.95;9.48;;;33.60;43.90;;;;;;5116176;28;20055;-62
2023/08/17 12:00:21;;;;;;;9.40;8.35;;;33.60;43.70;;;;;;5116661;28;20031;-62
2023/08/17 12:02:52;;;;;;;10.45;8.68;;;33.50;44.10;;;;;;5116011;28;20375;-62
2023/08/17 12:05:27;;;;;;;10.45;8.52;;;33.40;44.30;;;;;;5116601;28;20031;-62
2023/08/17 12:07:56;;;;;;;11.70;8.48;;;33.50;44.40;;;;;;5115963;28;20027;-62
2023/08/17 12:10:31;;;;;;;9.90;8.55;;;33.60;44.20;;;;;;5116496;28;20039;-62
2023/08/17 12:13:01;;;;;;;12.00;8.68;;;33.70;44.00;;;;;;5115894;28;20509;-62
2023/08/17 12:15:36;;;;;;;10.32;8.90;;;33.70;43.80;;;;;;5115941;28;20458;-62
2023/08/17 12:18:05;;;;;;;10.52;8.70;;;33.60;43.80;;;;;;5115908;28;20020;-62
2023/08/17 12:20:35;;;;;;;11.45;9.20;;;33.60;43.90;;;;;;5116341;28;20023;-62
2023/08/17 12:23:04;;;;;;;10.27;9.15;;;33.60;43.80;;;;;;5115805;28;20028;-62
2023/08/17 12:25:30;;;;;;;10.63;9.35;;;33.60;43.90;;;;;;5115802;28;20113;-61
2023/08/17 12:28:00;;;;;;;11.52;9.35;;;33.50;44.00;;;;;;5114889;28;20016;-61
2023/08/17 12:30:36;;;;;;;9.85;8.85;;;33.50;44.40;;;;;;5115988;28;20032;-62
2023/08/17 12:33:02;;;;;;;13.85;9.18;;;33.40;44.10;;;;;;5115681;28;20464;-61
2023/08/17 12:35:29;;;;;;;10.38;8.77;;;33.40;44.10;;;;;;5116283;28;20516;-61
2023/08/17 12:37:55;;;;;;;13.70;9.18;;;33.40;44.20;;;;;;5115788;28;20065;-62
2023/08/17 12:40:24;;;;;;;11.75;8.82;;;33.40;44.30;;;;;;5116228;28;20035;-62
2023/08/17 12:45:16;;;;;;;9.77;8.77;;;33.60;44.50;;;;;;5120647;28;20110;-61
2023/08/17 12:47:46;;;;;;;12.43;10.00;;;33.70;44.30;;;;;;5119584;28;20047;-62
2023/08/17 12:50:12;;;;;;;11.38;8.98;;;33.70;44.20;;;;;;5119689;28;20378;-62
2023/08/17 12:52:39;;;;;;;10.18;9.00;;;33.70;44.40;;;;;;5119910;28;20068;-62
2023/08/17 12:55:11;;;;;;;11.50;8.32;;;33.70;44.40;;;;;;5120193;28;20023;-62
2023/08/17 12:57:36;;;;;;;9.60;8.57;;;33.80;44.40;;;;;;5120275;28;20076;-62